PARY

Details ICAO PARY (RBY)
Name RUBY
Region USA (Alaska)
Timezone America/Anchorage (UTC-9.0)
Plans Departing 1
Arriving 4
Stats Elevation 653 ft / 199 m (AMSL)
Location 64.727214° -155.469871°
Runways 1
Magnetic Variation 14.583° E
Sunrise 2017-12-11 20:15:53 UTC / 2017-12-11 11:15:53 Local
Sunset 2017-12-12 00:17:41 UTC / 2017-12-11 15:17:41 Local
Advertisement - Login to hide

Runways

ID Width Length Bearing (true) Bearing (mag) Surface Threshold Offset Overrun Length
03 100 ft / 30 m 3,988 ft / 1,216 m 50.77° 36.19° Gravel 0 ft / 0 m 900 ft / 274 m
21 100 ft / 30 m 3,988 ft / 1,216 m 230.78° 216.20° Gravel 0 ft / 0 m 300 ft / 91 m

Map

Weather


0- 5 10 15 20 25 30 35+ Temperature / ° C

Clouds and Precipitation
Forecast for 2017-12-12 12:00 UTC. Updated an hour ago

Ground ~20,000 ft ~40,000 ft Winds

METAR

PARY 120821Z AUTO 06007G15KT 030V090 9SM OVC002 M03/M04 A2958 RMK AO2 FZRANO

TAF

Not found

Frequencies

Recorded 119.92 MHz ASOS
Unicom 122.80 MHz CTAF
Warning: Do not use this data for real-world aviation or navigation. No guarantee of current accuracy is given.